sensor_id;sensor_type;location;lat;lon;timestamp;temperature;humidity
12130;DHT22;6128;59.340;18.040;2022-12-18T00:00:16;-0.50;99.90
12130;DHT22;6128;59.340;18.040;2022-12-18T00:02:43;-0.50;99.90
12130;DHT22;6128;59.340;18.040;2022-12-18T00:05:10;-0.50;99.90
12130;DHT22;6128;59.340;18.040;2022-12-18T00:07:39;-0.50;99.90
12130;DHT22;6128;59.340;18.040;2022-12-18T00:10:07;-0.50;99.90
12130;DHT22;6128;59.340;18.040;2022-12-18T00:12:34;-0.50;99.90
12130;DHT22;6128;59.340;18.040;2022-12-18T00:15:02;-0.40;99.90
12130;DHT22;6128;59.340;18.040;2022-12-18T00:17:30;-0.40;99.90
12130;DHT22;6128;59.340;18.040;2022-12-18T00:19:57;-0.40;99.90
12130;DHT22;6128;59.340;18.040;2022-12-18T00:22:24;-0.40;99.90
12130;DHT22;6128;59.340;18.040;2022-12-18T00:24:51;-0.40;99.90
12130;DHT22;6128;59.340;18.040;2022-12-18T00:27:19;-0.40;99.90
12130;DHT22;6128;59.340;18.040;2022-12-18T00:29:46;-0.40;99.90
12130;DHT22;6128;59.340;18.040;2022-12-18T00:32:14;-0.40;99.90
12130;DHT22;6128;59.340;18.040;2022-12-18T00:34:43;-0.40;99.90
12130;DHT22;6128;59.340;18.040;2022-12-18T00:37:10;-0.40;99.90
12130;DHT22;6128;59.340;18.040;2022-12-18T00:39:37;-0.40;99.90
12130;DHT22;6128;59.340;18.040;2022-12-18T00:42:04;-0.40;99.90
12130;DHT22;6128;59.340;18.040;2022-12-18T00:44:49;-0.30;99.90
12130;DHT22;6128;59.340;18.040;2022-12-18T00:47:16;-0.40;99.90
12130;DHT22;6128;59.340;18.040;2022-12-18T00:49:45;-0.30;99.90
12130;DHT22;6128;59.340;18.040;2022-12-18T00:52:12;-0.30;99.90
12130;DHT22;6128;59.340;18.040;2022-12-18T00:54:39;-0.30;99.90
12130;DHT22;6128;59.340;18.040;2022-12-18T00:57:06;-0.30;99.90
12130;DHT22;6128;59.340;18.040;2022-12-18T00:59:34;-0.30;99.90
12130;DHT22;6128;59.340;18.040;2022-12-18T01:02:01;-0.30;99.90
12130;DHT22;6128;59.340;18.040;2022-12-18T01:04:31;-0.30;99.90
12130;DHT22;6128;59.340;18.040;2022-12-18T01:07:00;-0.30;99.90
12130;DHT22;6128;59.340;18.040;2022-12-18T01:09:27;-0.30;99.90
12130;DHT22;6128;59.340;18.040;2022-12-18T01:11:54;-0.30;99.90
12130;DHT22;6128;59.340;18.040;2022-12-18T01:14:22;-0.30;99.90
12130;DHT22;6128;59.340;18.040;2022-12-18T01:16:49;-0.30;99.90
12130;DHT22;6128;59.340;18.040;2022-12-18T01:19:17;-0.30;99.90
12130;DHT22;6128;59.340;18.040;2022-12-18T01:21:44;-0.30;99.90
12130;DHT22;6128;59.340;18.040;2022-12-18T01:24:13;-0.30;99.90
12130;DHT22;6128;59.340;18.040;2022-12-18T01:26:40;-0.40;99.90
12130;DHT22;6128;59.340;18.040;2022-12-18T01:29:08;-0.40;99.90
12130;DHT22;6128;59.340;18.040;2022-12-18T01:31:34;-0.40;99.90
12130;DHT22;6128;59.340;18.040;2022-12-18T01:34:02;-0.40;99.90
12130;DHT22;6128;59.340;18.040;2022-12-18T01:36:31;-0.40;99.90
12130;DHT22;6128;59.340;18.040;2022-12-18T01:39:00;-0.30;99.90
12130;DHT22;6128;59.340;18.040;2022-12-18T01:41:30;-0.30;99.90
12130;DHT22;6128;59.340;18.040;2022-12-18T01:47:32;-0.30;99.90
12130;DHT22;6128;59.340;18.040;2022-12-18T01:50:04;-0.30;99.90
12130;DHT22;6128;59.340;18.040;2022-12-18T01:52:34;-0.30;99.90
12130;DHT22;6128;59.340;18.040;2022-12-18T01:55:03;-0.30;99.90
12130;DHT22;6128;59.340;18.040;2022-12-18T01:57:33;-0.20;99.90
12130;DHT22;6128;59.340;18.040;2022-12-18T02:00:03;-0.20;99.90
12130;DHT22;6128;59.340;18.040;2022-12-18T02:02:31;-0.20;99.90
12130;DHT22;6128;59.340;18.040;2022-12-18T02:04:58;-0.20;99.90
12130;DHT22;6128;59.340;18.040;2022-12-18T02:07:33;-0.20;99.90
12130;DHT22;6128;59.340;18.040;2022-12-18T02:10:06;-0.20;99.90
12130;DHT22;6128;59.340;18.040;2022-12-18T02:12:42;-0.20;99.90
12130;DHT22;6128;59.340;18.040;2022-12-18T02:15:15;-0.20;99.90
12130;DHT22;6128;59.340;18.040;2022-12-18T02:17:50;-0.20;99.90
12130;DHT22;6128;59.340;18.040;2022-12-18T02:20:23;-0.20;99.90
12130;DHT22;6128;59.340;18.040;2022-12-18T02:23:13;-0.20;99.90
12130;DHT22;6128;59.340;18.040;2022-12-18T02:26:11;-0.20;99.90
12130;DHT22;6128;59.340;18.040;2022-12-18T02:28:43;-0.20;99.90
12130;DHT22;6128;59.340;18.040;2022-12-18T02:31:15;-0.20;99.90
12130;DHT22;6128;59.340;18.040;2022-12-18T02:33:45;-0.20;99.90
12130;DHT22;6128;59.340;18.040;2022-12-18T02:36:13;-0.20;99.90
12130;DHT22;6128;59.340;18.040;2022-12-18T02:38:42;-0.20;99.90
12130;DHT22;6128;59.340;18.040;2022-12-18T02:41:16;-0.20;99.90
12130;DHT22;6128;59.340;18.040;2022-12-18T02:43:48;-0.20;99.90
12130;DHT22;6128;59.340;18.040;2022-12-18T02:46:30;-0.20;99.90
12130;DHT22;6128;59.340;18.040;2022-12-18T02:49:11;-0.20;99.90
12130;DHT22;6128;59.340;18.040;2022-12-18T02:51:48;-0.20;99.90
12130;DHT22;6128;59.340;18.040;2022-12-18T02:54:23;-0.20;99.90
12130;DHT22;6128;59.340;18.040;2022-12-18T02:56:55;-0.20;99.90
12130;DHT22;6128;59.340;18.040;2022-12-18T02:59:29;-0.20;99.90
12130;DHT22;6128;59.340;18.040;2022-12-18T03:02:06;-0.20;99.90
12130;DHT22;6128;59.340;18.040;2022-12-18T03:04:39;-0.20;99.90
12130;DHT22;6128;59.340;18.040;2022-12-18T03:07:14;-0.20;99.90
12130;DHT22;6128;59.340;18.040;2022-12-18T03:09:47;-0.20;99.90
12130;DHT22;6128;59.340;18.040;2022-12-18T03:12:20;-0.20;99.90
12130;DHT22;6128;59.340;18.040;2022-12-18T03:14:54;-0.20;99.90
12130;DHT22;6128;59.340;18.040;2022-12-18T03:17:27;-0.20;99.90
12130;DHT22;6128;59.340;18.040;2022-12-18T03:19:57;-0.20;99.90
12130;DHT22;6128;59.340;18.040;2022-12-18T03:22:27;-0.20;99.90
12130;DHT22;6128;59.340;18.040;2022-12-18T03:24:57;-0.20;99.90
12130;DHT22;6128;59.340;18.040;2022-12-18T03:27:29;-0.20;99.90
12130;DHT22;6128;59.340;18.040;2022-12-18T03:30:03;-0.20;99.90
12130;DHT22;6128;59.340;18.040;2022-12-18T03:32:38;-0.20;99.90
12130;DHT22;6128;59.340;18.040;2022-12-18T03:35:08;-0.20;99.90
12130;DHT22;6128;59.340;18.040;2022-12-18T03:37:38;-0.20;99.90
12130;DHT22;6128;59.340;18.040;2022-12-18T03:40:08;-0.20;99.90
12130;DHT22;6128;59.340;18.040;2022-12-18T03:42:44;-0.20;99.90
12130;DHT22;6128;59.340;18.040;2022-12-18T03:45:19;-0.20;99.90
12130;DHT22;6128;59.340;18.040;2022-12-18T03:47:58;-0.20;99.90
12130;DHT22;6128;59.340;18.040;2022-12-18T03:50:35;-0.20;99.90
12130;DHT22;6128;59.340;18.040;2022-12-18T03:53:13;-0.20;99.90
12130;DHT22;6128;59.340;18.040;2022-12-18T03:55:43;-0.20;99.90
12130;DHT22;6128;59.340;18.040;2022-12-18T03:58:16;-0.20;99.90
12130;DHT22;6128;59.340;18.040;2022-12-18T04:00:48;-0.20;99.90
12130;DHT22;6128;59.340;18.040;2022-12-18T04:03:18;-0.20;99.90
12130;DHT22;6128;59.340;18.040;2022-12-18T04:05:47;-0.20;99.90
12130;DHT22;6128;59.340;18.040;2022-12-18T04:08:16;-0.30;99.90
12130;DHT22;6128;59.340;18.040;2022-12-18T04:10:43;-0.30;99.90
12130;DHT22;6128;59.340;18.040;2022-12-18T04:13:13;-0.30;99.90
12130;DHT22;6128;59.340;18.040;2022-12-18T04:15:48;-0.30;99.90
12130;DHT22;6128;59.340;18.040;2022-12-18T04:18:15;-0.30;99.90
12130;DHT22;6128;59.340;18.040;2022-12-18T04:20:42;-0.30;99.90
12130;DHT22;6128;59.340;18.040;2022-12-18T04:23:09;-0.30;99.90
12130;DHT22;6128;59.340;18.040;2022-12-18T04:25:38;-0.30;99.90
12130;DHT22;6128;59.340;18.040;2022-12-18T04:28:05;-0.30;99.90
12130;DHT22;6128;59.340;18.040;2022-12-18T04:30:34;-0.30;99.90
12130;DHT22;6128;59.340;18.040;2022-12-18T04:33:02;-0.30;99.90
12130;DHT22;6128;59.340;18.040;2022-12-18T04:35:29;-0.30;99.90
12130;DHT22;6128;59.340;18.040;2022-12-18T04:37:56;-0.30;99.90
12130;DHT22;6128;59.340;18.040;2022-12-18T04:40:24;-0.30;99.90
12130;DHT22;6128;59.340;18.040;2022-12-18T04:42:51;-0.30;99.90
12130;DHT22;6128;59.340;18.040;2022-12-18T04:45:18;-0.30;99.90
12130;DHT22;6128;59.340;18.040;2022-12-18T04:47:46;-0.30;99.90
12130;DHT22;6128;59.340;18.040;2022-12-18T04:50:14;-0.30;99.90
12130;DHT22;6128;59.340;18.040;2022-12-18T04:52:41;-0.30;99.90
12130;DHT22;6128;59.340;18.040;2022-12-18T04:55:08;-0.40;99.90
12130;DHT22;6128;59.340;18.040;2022-12-18T04:57:36;-0.30;99.90
12130;DHT22;6128;59.340;18.040;2022-12-18T05:00:04;-0.30;99.90
12130;DHT22;6128;59.340;18.040;2022-12-18T05:02:31;-0.30;99.90
12130;DHT22;6128;59.340;18.040;2022-12-18T05:05:00;-0.40;99.90
12130;DHT22;6128;59.340;18.040;2022-12-18T05:07:27;-0.40;99.90
12130;DHT22;6128;59.340;18.040;2022-12-18T05:09:54;-0.40;99.90
12130;DHT22;6128;59.340;18.040;2022-12-18T05:12:22;-0.40;99.90
12130;DHT22;6128;59.340;18.040;2022-12-18T05:14:49;-0.40;99.90
12130;DHT22;6128;59.340;18.040;2022-12-18T05:17:16;-0.40;99.90
12130;DHT22;6128;59.340;18.040;2022-12-18T05:19:43;-0.40;99.90
12130;DHT22;6128;59.340;18.040;2022-12-18T05:22:12;-0.40;99.90
12130;DHT22;6128;59.340;18.040;2022-12-18T05:24:39;-0.40;99.90
12130;DHT22;6128;59.340;18.040;2022-12-18T05:27:07;-0.40;99.90
12130;DHT22;6128;59.340;18.040;2022-12-18T05:29:34;-0.40;99.90
12130;DHT22;6128;59.340;18.040;2022-12-18T05:32:01;-0.40;99.90
12130;DHT22;6128;59.340;18.040;2022-12-18T05:34:29;-0.40;99.90
12130;DHT22;6128;59.340;18.040;2022-12-18T05:36:56;-0.40;99.90
12130;DHT22;6128;59.340;18.040;2022-12-18T05:39:27;-0.40;99.90
12130;DHT22;6128;59.340;18.040;2022-12-18T05:41:54;-0.30;99.90
12130;DHT22;6128;59.340;18.040;2022-12-18T05:44:21;-0.30;99.90
12130;DHT22;6128;59.340;18.040;2022-12-18T05:46:49;-0.30;99.90
12130;DHT22;6128;59.340;18.040;2022-12-18T05:49:19;-0.30;99.90
12130;DHT22;6128;59.340;18.040;2022-12-18T05:51:46;-0.30;99.90
12130;DHT22;6128;59.340;18.040;2022-12-18T05:54:13;-0.30;99.90
12130;DHT22;6128;59.340;18.040;2022-12-18T05:56:44;-0.30;99.90
12130;DHT22;6128;59.340;18.040;2022-12-18T05:59:19;-0.20;99.90
12130;DHT22;6128;59.340;18.040;2022-12-18T06:01:46;-0.20;99.90
12130;DHT22;6128;59.340;18.040;2022-12-18T06:04:14;-0.20;99.90
12130;DHT22;6128;59.340;18.040;2022-12-18T06:06:41;-0.20;99.90
12130;DHT22;6128;59.340;18.040;2022-12-18T06:09:08;-0.20;99.90
12130;DHT22;6128;59.340;18.040;2022-12-18T06:11:36;-0.10;99.90
12130;DHT22;6128;59.340;18.040;2022-12-18T06:14:06;-0.10;99.90
12130;DHT22;6128;59.340;18.040;2022-12-18T06:16:33;-0.10;99.90
12130;DHT22;6128;59.340;18.040;2022-12-18T06:19:02;-0.10;99.90
12130;DHT22;6128;59.340;18.040;2022-12-18T06:21:30;-0.10;99.90
12130;DHT22;6128;59.340;18.040;2022-12-18T06:23:59;-0.10;99.90
12130;DHT22;6128;59.340;18.040;2022-12-18T06:26:26;-0.10;99.90
12130;DHT22;6128;59.340;18.040;2022-12-18T06:28:53;-0.10;99.90
12130;DHT22;6128;59.340;18.040;2022-12-18T06:31:23;-0.10;99.90
12130;DHT22;6128;59.340;18.040;2022-12-18T06:33:50;-0.10;99.90
12130;DHT22;6128;59.340;18.040;2022-12-18T06:36:18;-0.10;99.90
12130;DHT22;6128;59.340;18.040;2022-12-18T06:38:45;-0.10;99.90
12130;DHT22;6128;59.340;18.040;2022-12-18T06:41:14;-0.10;99.90
12130;DHT22;6128;59.340;18.040;2022-12-18T06:43:41;-0.10;99.90
12130;DHT22;6128;59.340;18.040;2022-12-18T06:46:09;-0.10;99.90
12130;DHT22;6128;59.340;18.040;2022-12-18T06:48:38;-0.10;99.90
12130;DHT22;6128;59.340;18.040;2022-12-18T06:51:06;-0.10;99.90
12130;DHT22;6128;59.340;18.040;2022-12-18T06:53:33;0.00;99.90
12130;DHT22;6128;59.340;18.040;2022-12-18T06:56:01;0.00;99.90
12130;DHT22;6128;59.340;18.040;2022-12-18T06:58:28;0.00;99.90
12130;DHT22;6128;59.340;18.040;2022-12-18T07:00:59;0.00;99.90
12130;DHT22;6128;59.340;18.040;2022-12-18T07:03:27;0.00;99.90
12130;DHT22;6128;59.340;18.040;2022-12-18T07:05:56;0.00;99.90
12130;DHT22;6128;59.340;18.040;2022-12-18T07:08:23;0.00;99.90
12130;DHT22;6128;59.340;18.040;2022-12-18T07:10:50;0.00;99.90
12130;DHT22;6128;59.340;18.040;2022-12-18T07:13:18;0.10;99.90
12130;DHT22;6128;59.340;18.040;2022-12-18T07:15:45;0.10;99.90
12130;DHT22;6128;59.340;18.040;2022-12-18T07:18:13;0.10;99.90
12130;DHT22;6128;59.340;18.040;2022-12-18T07:20:40;0.10;99.90
12130;DHT22;6128;59.340;18.040;2022-12-18T07:23:45;0.20;99.90
12130;DHT22;6128;59.340;18.040;2022-12-18T07:26:02;0.20;99.90
12130;DHT22;6128;59.340;18.040;2022-12-18T07:28:30;0.20;99.90
12130;DHT22;6128;59.340;18.040;2022-12-18T07:30:57;0.20;99.90
12130;DHT22;6128;59.340;18.040;2022-12-18T07:33:24;0.30;99.90
12130;DHT22;6128;59.340;18.040;2022-12-18T07:35:52;0.30;99.90
12130;DHT22;6128;59.340;18.040;2022-12-18T07:38:21;0.30;99.90
12130;DHT22;6128;59.340;18.040;2022-12-18T07:40:48;0.40;99.90
12130;DHT22;6128;59.340;18.040;2022-12-18T07:43:15;0.40;99.90
12130;DHT22;6128;59.340;18.040;2022-12-18T07:45:43;0.50;99.90
12130;DHT22;6128;59.340;18.040;2022-12-18T07:48:10;0.50;99.90
12130;DHT22;6128;59.340;18.040;2022-12-18T07:50:37;0.50;99.90
12130;DHT22;6128;59.340;18.040;2022-12-18T07:53:05;0.50;99.90
12130;DHT22;6128;59.340;18.040;2022-12-18T07:55:33;0.60;99.90
12130;DHT22;6128;59.340;18.040;2022-12-18T07:58:01;0.60;99.90
12130;DHT22;6128;59.340;18.040;2022-12-18T08:00:29;0.60;99.90
12130;DHT22;6128;59.340;18.040;2022-12-18T08:02:56;0.60;99.90
12130;DHT22;6128;59.340;18.040;2022-12-18T08:05:24;0.70;99.90
12130;DHT22;6128;59.340;18.040;2022-12-18T08:08:00;0.70;99.90
12130;DHT22;6128;59.340;18.040;2022-12-18T08:10:27;0.70;99.90
12130;DHT22;6128;59.340;18.040;2022-12-18T08:12:56;0.70;99.90
12130;DHT22;6128;59.340;18.040;2022-12-18T08:15:23;0.70;99.90
12130;DHT22;6128;59.340;18.040;2022-12-18T08:17:50;0.70;99.90
12130;DHT22;6128;59.340;18.040;2022-12-18T08:20:18;0.70;99.90
12130;DHT22;6128;59.340;18.040;2022-12-18T08:22:45;0.80;99.90
12130;DHT22;6128;59.340;18.040;2022-12-18T08:25:12;0.80;99.90
12130;DHT22;6128;59.340;18.040;2022-12-18T08:27:39;0.80;99.90
12130;DHT22;6128;59.340;18.040;2022-12-18T08:30:10;0.80;99.90
12130;DHT22;6128;59.340;18.040;2022-12-18T08:32:37;0.90;99.90
12130;DHT22;6128;59.340;18.040;2022-12-18T08:35:05;0.90;99.90
12130;DHT22;6128;59.340;18.040;2022-12-18T08:37:33;0.90;99.90
12130;DHT22;6128;59.340;18.040;2022-12-18T08:40:00;0.90;99.90
12130;DHT22;6128;59.340;18.040;2022-12-18T08:42:36;0.90;99.90
12130;DHT22;6128;59.340;18.040;2022-12-18T08:45:24;1.00;99.90
12130;DHT22;6128;59.340;18.040;2022-12-18T08:47:52;1.00;99.90
12130;DHT22;6128;59.340;18.040;2022-12-18T08:50:19;1.10;99.90
12130;DHT22;6128;59.340;18.040;2022-12-18T08:52:47;1.10;99.90
12130;DHT22;6128;59.340;18.040;2022-12-18T08:55:14;1.10;99.90
12130;DHT22;6128;59.340;18.040;2022-12-18T08:57:41;1.10;99.90
12130;DHT22;6128;59.340;18.040;2022-12-18T09:00:10;1.20;99.90
12130;DHT22;6128;59.340;18.040;2022-12-18T09:02:40;1.20;99.90
12130;DHT22;6128;59.340;18.040;2022-12-18T09:05:07;1.20;99.90
12130;DHT22;6128;59.340;18.040;2022-12-18T09:07:34;1.30;99.90
12130;DHT22;6128;59.340;18.040;2022-12-18T09:10:02;1.30;99.90
12130;DHT22;6128;59.340;18.040;2022-12-18T09:12:29;1.30;99.90
12130;DHT22;6128;59.340;18.040;2022-12-18T09:14:57;1.40;99.90
12130;DHT22;6128;59.340;18.040;2022-12-18T09:17:24;1.40;99.90
12130;DHT22;6128;59.340;18.040;2022-12-18T09:19:54;1.40;99.90
12130;DHT22;6128;59.340;18.040;2022-12-18T09:22:22;1.40;99.90
12130;DHT22;6128;59.340;18.040;2022-12-18T09:24:49;1.50;99.90
12130;DHT22;6128;59.340;18.040;2022-12-18T09:27:17;1.50;99.90
12130;DHT22;6128;59.340;18.040;2022-12-18T09:29:47;1.50;99.90
12130;DHT22;6128;59.340;18.040;2022-12-18T09:32:14;1.60;99.90
12130;DHT22;6128;59.340;18.040;2022-12-18T09:34:42;1.60;99.90
12130;DHT22;6128;59.340;18.040;2022-12-18T09:37:10;1.70;99.90
12130;DHT22;6128;59.340;18.040;2022-12-18T09:39:38;1.70;99.90
12130;DHT22;6128;59.340;18.040;2022-12-18T09:42:05;1.70;99.90
12130;DHT22;6128;59.340;18.040;2022-12-18T09:44:35;1.80;99.90
12130;DHT22;6128;59.340;18.040;2022-12-18T09:47:09;1.80;99.90
12130;DHT22;6128;59.340;18.040;2022-12-18T09:49:48;1.80;99.90
12130;DHT22;6128;59.340;18.040;2022-12-18T09:52:23;1.90;99.90
12130;DHT22;6128;59.340;18.040;2022-12-18T09:54:54;1.90;99.90
12130;DHT22;6128;59.340;18.040;2022-12-18T09:57:25;1.90;99.90
12130;DHT22;6128;59.340;18.040;2022-12-18T09:59:56;2.00;99.90
12130;DHT22;6128;59.340;18.040;2022-12-18T10:02:26;2.00;99.90
12130;DHT22;6128;59.340;18.040;2022-12-18T10:05:04;2.00;99.90
12130;DHT22;6128;59.340;18.040;2022-12-18T10:07:48;2.00;99.90
12130;DHT22;6128;59.340;18.040;2022-12-18T10:10:25;2.10;99.90
12130;DHT22;6128;59.340;18.040;2022-12-18T10:12:59;2.10;99.90
12130;DHT22;6128;59.340;18.040;2022-12-18T10:15:34;2.10;99.90
12130;DHT22;6128;59.340;18.040;2022-12-18T10:18:14;2.10;99.90
12130;DHT22;6128;59.340;18.040;2022-12-18T10:20:47;2.10;99.90
12130;DHT22;6128;59.340;18.040;2022-12-18T10:23:21;2.20;99.90
12130;DHT22;6128;59.340;18.040;2022-12-18T10:25:53;2.20;99.90
12130;DHT22;6128;59.340;18.040;2022-12-18T10:28:23;2.20;99.90
12130;DHT22;6128;59.340;18.040;2022-12-18T10:30:51;2.20;99.90
12130;DHT22;6128;59.340;18.040;2022-12-18T10:33:20;2.20;99.90
12130;DHT22;6128;59.340;18.040;2022-12-18T10:35:52;2.30;99.90
12130;DHT22;6128;59.340;18.040;2022-12-18T10:38:28;2.30;99.90
12130;DHT22;6128;59.340;18.040;2022-12-18T10:40:58;2.30;99.90
12130;DHT22;6128;59.340;18.040;2022-12-18T10:43:27;2.30;99.90
12130;DHT22;6128;59.340;18.040;2022-12-18T10:46:12;2.30;99.90
12130;DHT22;6128;59.340;18.040;2022-12-18T10:48:49;2.30;99.90
12130;DHT22;6128;59.340;18.040;2022-12-18T10:51:24;2.30;99.90
12130;DHT22;6128;59.340;18.040;2022-12-18T10:53:56;2.30;99.90
12130;DHT22;6128;59.340;18.040;2022-12-18T10:56:26;2.30;99.90
12130;DHT22;6128;59.340;18.040;2022-12-18T10:58:59;2.30;99.90
12130;DHT22;6128;59.340;18.040;2022-12-18T11:01:26;2.30;99.90
12130;DHT22;6128;59.340;18.040;2022-12-18T11:04:02;2.30;99.90
12130;DHT22;6128;59.340;18.040;2022-12-18T11:06:34;2.30;99.90
12130;DHT22;6128;59.340;18.040;2022-12-18T11:09:22;2.30;99.90
12130;DHT22;6128;59.340;18.040;2022-12-18T11:11:50;2.30;99.90
12130;DHT22;6128;59.340;18.040;2022-12-18T11:14:22;2.30;99.90
12130;DHT22;6128;59.340;18.040;2022-12-18T11:16:51;2.30;99.90
12130;DHT22;6128;59.340;18.040;2022-12-18T11:19:29;2.30;99.90
12130;DHT22;6128;59.340;18.040;2022-12-18T11:21:57;2.30;99.90
12130;DHT22;6128;59.340;18.040;2022-12-18T11:24:29;2.30;99.90
12130;DHT22;6128;59.340;18.040;2022-12-18T11:26:59;2.30;99.90
12130;DHT22;6128;59.340;18.040;2022-12-18T11:29:35;2.30;99.90
12130;DHT22;6128;59.340;18.040;2022-12-18T11:32:33;2.30;99.90
12130;DHT22;6128;59.340;18.040;2022-12-18T11:35:15;2.30;99.90
12130;DHT22;6128;59.340;18.040;2022-12-18T11:37:52;2.30;99.90
12130;DHT22;6128;59.340;18.040;2022-12-18T11:40:33;2.30;99.90
12130;DHT22;6128;59.340;18.040;2022-12-18T11:43:08;2.30;99.90
12130;DHT22;6128;59.340;18.040;2022-12-18T11:45:48;2.30;99.90
12130;DHT22;6128;59.340;18.040;2022-12-18T11:48:23;2.40;99.90
12130;DHT22;6128;59.340;18.040;2022-12-18T11:50:53;2.40;99.90
12130;DHT22;6128;59.340;18.040;2022-12-18T11:53:22;2.40;99.90
12130;DHT22;6128;59.340;18.040;2022-12-18T11:56:00;2.40;99.90
12130;DHT22;6128;59.340;18.040;2022-12-18T11:58:50;2.40;99.90
12130;DHT22;6128;59.340;18.040;2022-12-18T12:01:30;2.40;99.90
12130;DHT22;6128;59.340;18.040;2022-12-18T12:04:10;2.40;99.90
12130;DHT22;6128;59.340;18.040;2022-12-18T12:06:48;2.50;99.90
12130;DHT22;6128;59.340;18.040;2022-12-18T12:09:22;2.40;99.90
12130;DHT22;6128;59.340;18.040;2022-12-18T12:12:02;2.50;99.90
12130;DHT22;6128;59.340;18.040;2022-12-18T12:14:44;2.50;99.90
12130;DHT22;6128;59.340;18.040;2022-12-18T12:17:21;2.50;99.90
12130;DHT22;6128;59.340;18.040;2022-12-18T12:19:56;2.50;99.90
12130;DHT22;6128;59.340;18.040;2022-12-18T12:22:33;2.50;99.90
12130;DHT22;6128;59.340;18.040;2022-12-18T12:25:18;2.50;99.90
12130;DHT22;6128;59.340;18.040;2022-12-18T12:27:55;2.50;99.90
12130;DHT22;6128;59.340;18.040;2022-12-18T12:30:32;2.60;99.90
12130;DHT22;6128;59.340;18.040;2022-12-18T12:33:13;2.60;99.90
12130;DHT22;6128;59.340;18.040;2022-12-18T12:35:47;2.60;99.90
12130;DHT22;6128;59.340;18.040;2022-12-18T12:38:21;2.60;99.90
12130;DHT22;6128;59.340;18.040;2022-12-18T12:40:54;2.60;99.90
12130;DHT22;6128;59.340;18.040;2022-12-18T12:43:48;2.60;99.90
12130;DHT22;6128;59.340;18.040;2022-12-18T12:46:17;2.60;99.90
12130;DHT22;6128;59.340;18.040;2022-12-18T12:48:57;2.60;99.90
12130;DHT22;6128;59.340;18.040;2022-12-18T12:51:28;2.60;99.90
12130;DHT22;6128;59.340;18.040;2022-12-18T12:53:58;2.60;99.90
12130;DHT22;6128;59.340;18.040;2022-12-18T12:56:36;2.70;99.90
12130;DHT22;6128;59.340;18.040;2022-12-18T12:59:11;2.70;99.90
12130;DHT22;6128;59.340;18.040;2022-12-18T13:01:49;2.80;99.90
12130;DHT22;6128;59.340;18.040;2022-12-18T13:04:23;2.80;99.90
12130;DHT22;6128;59.340;18.040;2022-12-18T13:06:57;2.80;99.90
12130;DHT22;6128;59.340;18.040;2022-12-18T13:09:30;2.80;99.90
12130;DHT22;6128;59.340;18.040;2022-12-18T13:12:05;2.90;99.90
12130;DHT22;6128;59.340;18.040;2022-12-18T13:15:12;2.90;99.90
12130;DHT22;6128;59.340;18.040;2022-12-18T13:17:40;2.90;99.90
12130;DHT22;6128;59.340;18.040;2022-12-18T13:20:10;2.90;99.90
12130;DHT22;6128;59.340;18.040;2022-12-18T13:22:38;2.90;99.90
12130;DHT22;6128;59.340;18.040;2022-12-18T13:25:29;2.90;99.90
12130;DHT22;6128;59.340;18.040;2022-12-18T13:28:02;3.00;99.90
12130;DHT22;6128;59.340;18.040;2022-12-18T13:30:51;3.00;99.90
12130;DHT22;6128;59.340;18.040;2022-12-18T13:33:48;3.00;99.90
12130;DHT22;6128;59.340;18.040;2022-12-18T13:36:41;3.00;99.90
12130;DHT22;6128;59.340;18.040;2022-12-18T13:39:32;3.10;99.90
12130;DHT22;6128;59.340;18.040;2022-12-18T13:45:44;3.00;99.90
12130;DHT22;6128;59.340;18.040;2022-12-18T13:48:19;3.00;99.90
12130;DHT22;6128;59.340;18.040;2022-12-18T13:50:56;3.00;99.90
12130;DHT22;6128;59.340;18.040;2022-12-18T13:53:27;2.90;99.90
12130;DHT22;6128;59.340;18.040;2022-12-18T13:55:55;2.90;99.90
12130;DHT22;6128;59.340;18.040;2022-12-18T13:58:23;2.90;99.90
12130;DHT22;6128;59.340;18.040;2022-12-18T14:00:50;2.90;99.90
12130;DHT22;6128;59.340;18.040;2022-12-18T14:03:24;3.00;99.90
12130;DHT22;6128;59.340;18.040;2022-12-18T14:05:55;3.00;99.90
12130;DHT22;6128;59.340;18.040;2022-12-18T14:08:32;3.10;99.90
12130;DHT22;6128;59.340;18.040;2022-12-18T14:11:00;3.10;99.90
12130;DHT22;6128;59.340;18.040;2022-12-18T14:13:30;3.10;99.90
12130;DHT22;6128;59.340;18.040;2022-12-18T14:15:57;3.10;99.90
12130;DHT22;6128;59.340;18.040;2022-12-18T14:18:33;3.10;99.90
12130;DHT22;6128;59.340;18.040;2022-12-18T14:21:04;3.10;99.90
12130;DHT22;6128;59.340;18.040;2022-12-18T14:23:34;3.20;99.90
12130;DHT22;6128;59.340;18.040;2022-12-18T14:26:02;3.10;99.90
12130;DHT22;6128;59.340;18.040;2022-12-18T14:28:31;3.20;99.90
12130;DHT22;6128;59.340;18.040;2022-12-18T14:30:58;3.20;99.90
12130;DHT22;6128;59.340;18.040;2022-12-18T14:33:28;3.20;99.90
12130;DHT22;6128;59.340;18.040;2022-12-18T14:35:58;3.20;99.90
12130;DHT22;6128;59.340;18.040;2022-12-18T14:38:28;3.20;99.90
12130;DHT22;6128;59.340;18.040;2022-12-18T14:41:00;3.20;99.90
12130;DHT22;6128;59.340;18.040;2022-12-18T14:43:30;3.20;99.90
12130;DHT22;6128;59.340;18.040;2022-12-18T14:45:58;3.30;99.90
12130;DHT22;6128;59.340;18.040;2022-12-18T14:48:36;3.20;99.90
12130;DHT22;6128;59.340;18.040;2022-12-18T14:51:05;3.20;99.90
12130;DHT22;6128;59.340;18.040;2022-12-18T14:53:38;3.20;99.90
12130;DHT22;6128;59.340;18.040;2022-12-18T14:56:17;3.20;99.90
12130;DHT22;6128;59.340;18.040;2022-12-18T14:58:49;3.20;99.90
12130;DHT22;6128;59.340;18.040;2022-12-18T15:01:23;3.20;99.90
12130;DHT22;6128;59.340;18.040;2022-12-18T15:03:53;3.20;99.90
12130;DHT22;6128;59.340;18.040;2022-12-18T15:06:32;3.20;99.90
12130;DHT22;6128;59.340;18.040;2022-12-18T15:09:01;3.20;99.90
12130;DHT22;6128;59.340;18.040;2022-12-18T15:11:44;3.20;99.90
12130;DHT22;6128;59.340;18.040;2022-12-18T15:14:31;3.10;99.90
12130;DHT22;6128;59.340;18.040;2022-12-18T15:17:02;3.10;99.90
12130;DHT22;6128;59.340;18.040;2022-12-18T15:19:38;3.10;99.90
12130;DHT22;6128;59.340;18.040;2022-12-18T15:22:18;3.10;99.90
12130;DHT22;6128;59.340;18.040;2022-12-18T15:24:45;3.10;99.90
12130;DHT22;6128;59.340;18.040;2022-12-18T15:27:32;3.10;99.90
12130;DHT22;6128;59.340;18.040;2022-12-18T15:30:19;3.10;99.90
12130;DHT22;6128;59.340;18.040;2022-12-18T15:32:47;3.10;99.90
12130;DHT22;6128;59.340;18.040;2022-12-18T15:35:18;3.10;99.90
12130;DHT22;6128;59.340;18.040;2022-12-18T15:37:46;3.10;99.90
12130;DHT22;6128;59.340;18.040;2022-12-18T15:40:14;3.10;99.90
12130;DHT22;6128;59.340;18.040;2022-12-18T15:42:42;3.10;99.90
12130;DHT22;6128;59.340;18.040;2022-12-18T15:45:26;3.10;99.90
12130;DHT22;6128;59.340;18.040;2022-12-18T15:47:55;3.10;99.90
12130;DHT22;6128;59.340;18.040;2022-12-18T15:50:24;3.20;99.90
12130;DHT22;6128;59.340;18.040;2022-12-18T15:52:53;3.20;99.90
12130;DHT22;6128;59.340;18.040;2022-12-18T15:55:23;3.20;99.90
12130;DHT22;6128;59.340;18.040;2022-12-18T15:58:11;3.30;99.90
12130;DHT22;6128;59.340;18.040;2022-12-18T16:00:39;3.30;99.90
12130;DHT22;6128;59.340;18.040;2022-12-18T16:03:08;3.30;99.90
12130;DHT22;6128;59.340;18.040;2022-12-18T16:05:37;3.20;99.90
12130;DHT22;6128;59.340;18.040;2022-12-18T16:08:04;3.20;99.90
12130;DHT22;6128;59.340;18.040;2022-12-18T16:10:31;3.20;99.90
12130;DHT22;6128;59.340;18.040;2022-12-18T16:12:59;3.20;99.90